createdAt,value
2017-10-10T00:00:00.442Z,98.70
2017-10-10T00:01:02.912Z,98.80
2017-10-10T00:02:05.387Z,98.80
2017-10-10T00:03:08.675Z,98.70
2017-10-10T00:04:11.158Z,98.70
2017-10-10T00:05:13.630Z,98.70
2017-10-10T00:06:16.131Z,98.70
2017-10-10T00:07:18.598Z,98.70
2017-10-10T00:08:21.075Z,98.70
2017-10-10T00:09:23.584Z,98.70
2017-10-10T00:10:26.830Z,98.80
2017-10-10T00:11:29.327Z,98.80
2017-10-10T00:12:31.830Z,98.80
2017-10-10T00:13:34.317Z,98.90
2017-10-10T00:14:36.803Z,98.80
2017-10-10T00:15:40.022Z,98.80
2017-10-10T00:16:42.479Z,98.70
2017-10-10T00:17:45.722Z,98.90
2017-10-10T00:18:48.946Z,98.90
2017-10-10T00:19:51.494Z,98.80
2017-10-10T00:20:54.772Z,98.90
2017-10-10T00:21:57.247Z,98.90
2017-10-10T00:22:59.743Z,98.90
2017-10-10T00:24:02.232Z,98.90
2017-10-10T00:25:04.734Z,98.80
2017-10-10T00:26:07.241Z,98.80
2017-10-10T00:27:09.925Z,98.90
2017-10-10T00:28:12.432Z,98.80
2017-10-10T00:29:14.914Z,98.70
2017-10-10T00:30:17.377Z,98.70
2017-10-10T00:31:19.914Z,98.70
2017-10-10T00:32:22.451Z,98.80
2017-10-10T00:33:24.966Z,98.80
2017-10-10T00:34:27.442Z,98.90
2017-10-10T00:35:29.921Z,98.90
2017-10-10T00:36:32.386Z,98.80
2017-10-10T00:37:34.877Z,98.90
2017-10-10T00:38:37.342Z,98.90
2017-10-10T00:39:39.831Z,98.90
2017-10-10T00:40:42.296Z,98.90
2017-10-10T00:41:45.525Z,98.90
2017-10-10T00:42:48.038Z,98.90
2017-10-10T00:43:50.539Z,98.90
2017-10-10T00:44:53.042Z,98.80
2017-10-10T00:45:56.283Z,98.90
2017-10-10T00:46:59.560Z,99.00
2017-10-10T00:48:02.038Z,98.90
2017-10-10T00:49:05.302Z,99.30
2017-10-10T00:50:08.546Z,98.90
2017-10-10T00:51:11.036Z,98.90
2017-10-10T00:52:13.499Z,99.00
2017-10-10T00:53:15.990Z,99.00
2017-10-10T00:54:18.474Z,99.00
2017-10-10T00:55:20.981Z,98.80
2017-10-10T00:56:23.484Z,99.00
2017-10-10T00:57:26.722Z,99.00
2017-10-10T00:58:29.958Z,99.00
2017-10-10T00:59:33.344Z,99.10
2017-10-10T01:00:35.826Z,99.00
2017-10-10T01:01:38.347Z,99.10
2017-10-10T01:02:40.843Z,99.10
2017-10-10T01:03:43.298Z,99.00
2017-10-10T01:04:45.794Z,99.00
2017-10-10T01:05:48.274Z,99.00
2017-10-10T01:06:50.733Z,99.30
2017-10-10T01:07:53.202Z,98.90
2017-10-10T01:08:56.437Z,98.90
2017-10-10T01:09:58.932Z,98.80
2017-10-10T01:11:01.437Z,99.20
2017-10-10T01:12:03.886Z,98.90
2017-10-10T01:13:06.358Z,98.90
2017-10-10T01:14:08.826Z,99.00
2017-10-10T01:15:11.322Z,99.00
2017-10-10T01:16:13.792Z,98.90
2017-10-10T01:17:16.386Z,99.00
2017-10-10T01:18:18.849Z,99.00
2017-10-10T01:19:21.310Z,99.00
2017-10-10T01:20:24.577Z,99.10
2017-10-10T01:21:27.026Z,99.10
2017-10-10T01:22:29.506Z,99.10
2017-10-10T01:23:32.770Z,99.10
2017-10-10T01:24:35.272Z,99.10
2017-10-10T01:25:38.536Z,99.10
2017-10-10T01:26:40.987Z,99.00
2017-10-10T01:27:43.478Z,99.00
2017-10-10T01:28:45.935Z,99.00
2017-10-10T01:29:48.395Z,99.30
2017-10-10T01:30:50.851Z,99.10
2017-10-10T01:31:53.388Z,99.10
2017-10-10T01:32:55.988Z,99.10
2017-10-10T01:33:59.209Z,99.10
2017-10-10T01:35:02.467Z,99.00
2017-10-10T01:36:05.695Z,99.00
2017-10-10T01:37:08.288Z,99.00
2017-10-10T01:38:10.805Z,99.00
2017-10-10T01:39:13.277Z,99.10
2017-10-10T01:40:16.513Z,99.10
2017-10-10T01:41:18.973Z,99.10
2017-10-10T01:42:21.446Z,99.00
2017-10-10T01:43:23.908Z,98.90
2017-10-10T01:44:27.255Z,99.00
2017-10-10T01:45:30.473Z,99.10
2017-10-10T01:46:32.959Z,99.10
2017-10-10T01:47:35.422Z,99.10
2017-10-10T01:48:37.864Z,99.10
2017-10-10T01:49:41.103Z,99.20
2017-10-10T01:50:44.346Z,99.50
2017-10-10T01:51:47.616Z,99.30
2017-10-10T01:52:50.147Z,99.20
2017-10-10T01:53:52.654Z,99.20
2017-10-10T01:54:55.894Z,99.20
2017-10-10T01:55:59.118Z,99.30
2017-10-10T01:57:02.402Z,99.30
2017-10-10T01:58:04.954Z,99.30
2017-10-10T01:59:07.438Z,99.30
2017-10-10T02:00:09.895Z,99.60
2017-10-10T02:01:12.366Z,99.30
2017-10-10T02:02:15.602Z,99.20
2017-10-10T02:03:18.864Z,99.10
2017-10-10T02:04:21.350Z,99.20
2017-10-10T02:05:23.814Z,99.20
2017-10-10T02:06:26.278Z,99.30
2017-10-10T02:07:28.884Z,99.30
2017-10-10T02:08:31.353Z,99.20
2017-10-10T02:09:33.818Z,99.20
2017-10-10T02:10:36.365Z,99.30
2017-10-10T02:11:39.100Z,99.30
2017-10-10T02:12:41.598Z,99.30
2017-10-10T02:13:44.834Z,99.40
2017-10-10T02:14:48.085Z,99.40
2017-10-10T02:15:50.559Z,99.40
2017-10-10T02:16:53.004Z,99.40
2017-10-10T02:17:55.484Z,99.40
2017-10-10T02:18:57.946Z,99.70
2017-10-10T02:20:00.482Z,99.40
2017-10-10T02:21:03.290Z,99.30
2017-10-10T02:22:05.786Z,99.40
2017-10-10T02:23:08.273Z,99.40
2017-10-10T02:24:11.553Z,99.20
2017-10-10T02:25:14.029Z,99.20
2017-10-10T02:26:16.502Z,99.20
2017-10-10T02:27:18.986Z,99.20
2017-10-10T02:28:21.437Z,99.20
2017-10-10T02:29:23.914Z,99.20
2017-10-10T02:30:26.365Z,99.20
2017-10-10T02:31:29.606Z,99.20
2017-10-10T02:32:32.850Z,99.20
2017-10-10T02:33:36.075Z,99.20
2017-10-10T02:34:40.045Z,99.20
2017-10-10T02:35:43.305Z,99.20
2017-10-10T02:36:45.962Z,99.20
2017-10-10T02:37:48.471Z,99.30
2017-10-10T02:38:51.710Z,99.30
2017-10-10T02:39:54.174Z,99.30
2017-10-10T02:40:56.634Z,99.30
2017-10-10T02:41:59.878Z,99.10
2017-10-10T02:43:03.127Z,99.30
2017-10-10T02:44:06.391Z,99.30
2017-10-10T02:45:08.853Z,99.30
2017-10-10T02:46:11.330Z,99.30
2017-10-10T02:47:13.858Z,99.30
2017-10-10T02:48:16.399Z,99.30
2017-10-10T02:49:18.913Z,99.30
2017-10-10T02:50:21.480Z,99.30
2017-10-10T02:51:24.790Z,99.30
2017-10-10T02:52:27.305Z,99.30
2017-10-10T02:53:29.771Z,99.30
2017-10-10T02:54:32.510Z,99.30
2017-10-10T02:55:34.982Z,99.30
2017-10-10T02:56:38.244Z,99.30
2017-10-10T02:57:40.709Z,99.20
2017-10-10T02:58:43.158Z,99.30
2017-10-10T02:59:46.387Z,99.30
2017-10-10T03:00:48.849Z,99.30
2017-10-10T03:01:51.369Z,99.20
2017-10-10T03:02:53.823Z,99.30
2017-10-10T03:03:56.287Z,99.30
2017-10-10T03:04:58.768Z,99.30
2017-10-10T03:06:01.231Z,99.50
2017-10-10T03:07:03.894Z,99.30
2017-10-10T03:08:06.362Z,99.40
2017-10-10T03:09:08.807Z,99.30
2017-10-10T03:10:11.267Z,99.30
2017-10-10T03:11:14.506Z,99.30
2017-10-10T03:12:17.785Z,99.20
2017-10-10T03:13:20.257Z,99.20
2017-10-10T03:14:22.734Z,99.30
2017-10-10T03:15:25.227Z,99.30
2017-10-10T03:16:28.485Z,99.30
2017-10-10T03:17:30.944Z,99.30
2017-10-10T03:18:34.114Z,99.30
2017-10-10T03:19:37.345Z,99.70
2017-10-10T03:20:39.818Z,99.30
2017-10-10T03:21:42.332Z,99.30
2017-10-10T03:22:44.816Z,99.40
2017-10-10T03:23:47.280Z,99.40
2017-10-10T03:24:49.823Z,99.40
2017-10-10T03:25:52.350Z,99.50
2017-10-10T03:26:54.807Z,99.50
2017-10-10T03:27:57.264Z,99.50
2017-10-10T03:29:00.507Z,99.50
2017-10-10T03:30:03.731Z,99.50
2017-10-10T03:31:07.015Z,99.70
2017-10-10T03:32:09.487Z,99.40
2017-10-10T03:33:11.967Z,99.40
2017-10-10T03:34:14.439Z,99.40
2017-10-10T03:35:16.900Z,99.40
2017-10-10T03:36:20.158Z,99.40
2017-10-10T03:37:22.616Z,99.40
2017-10-10T03:38:25.086Z,99.40
2017-10-10T03:39:28.313Z,99.50
2017-10-10T03:40:30.779Z,99.40
2017-10-10T03:41:33.275Z,99.50
2017-10-10T03:42:36.529Z,99.50
2017-10-10T03:43:39.750Z,99.40
2017-10-10T03:44:42.211Z,99.40
2017-10-10T03:45:44.744Z,99.50
2017-10-10T03:46:47.206Z,99.50
2017-10-10T03:47:49.686Z,99.50
2017-10-10T03:48:52.196Z,99.50
2017-10-10T03:49:55.430Z,99.50
2017-10-10T03:50:58.697Z,99.50
2017-10-10T03:52:01.163Z,99.50
2017-10-10T03:53:03.634Z,99.50
2017-10-10T03:54:06.168Z,99.50
2017-10-10T03:55:09.539Z,99.50
2017-10-10T03:56:12.116Z,99.50
2017-10-10T03:57:14.561Z,99.50
2017-10-10T03:58:17.039Z,99.50
2017-10-10T03:59:19.536Z,99.50
2017-10-10T04:00:22.030Z,99.40
2017-10-10T04:01:24.507Z,99.40
2017-10-10T04:02:26.994Z,99.40
2017-10-10T04:03:29.460Z,99.30
2017-10-10T04:04:32.250Z,99.40
2017-10-10T04:05:34.771Z,99.50
2017-10-10T04:06:37.287Z,99.60
2017-10-10T04:07:40.522Z,99.40
2017-10-10T04:08:43.763Z,99.40
2017-10-10T04:09:47.433Z,99.40
2017-10-10T04:10:50.074Z,99.40
2017-10-10T04:11:52.592Z,99.40
2017-10-10T04:12:55.132Z,99.40
2017-10-10T04:13:57.596Z,99.40
2017-10-10T04:15:00.079Z,99.40
2017-10-10T04:16:02.582Z,99.40
2017-10-10T04:17:05.100Z,99.40
2017-10-10T04:18:08.377Z,99.60
2017-10-10T04:19:10.842Z,99.60
2017-10-10T04:20:13.384Z,99.40
2017-10-10T04:21:16.611Z,99.50
2017-10-10T04:22:20.595Z,99.40
2017-10-10T04:23:23.827Z,99.30
2017-10-10T04:24:27.081Z,99.40
2017-10-10T04:25:30.316Z,99.40
2017-10-10T04:26:33.702Z,99.40
2017-10-10T04:27:36.187Z,99.40
2017-10-10T04:28:39.497Z,99.10
2017-10-10T04:29:41.979Z,99.10
2017-10-10T04:30:44.457Z,99.00
2017-10-10T04:31:47.026Z,98.90
2017-10-10T04:32:49.518Z,98.80
2017-10-10T04:33:52.010Z,98.70
2017-10-10T04:34:54.509Z,98.60
2017-10-10T04:35:57.020Z,98.50
2017-10-10T04:36:59.502Z,98.60
2017-10-10T04:38:01.956Z,98.60
2017-10-10T04:39:05.232Z,98.60
2017-10-10T04:40:07.718Z,98.60
2017-10-10T04:41:10.983Z,98.70
2017-10-10T04:42:13.454Z,98.60
2017-10-10T04:43:15.938Z,98.60
2017-10-10T04:44:18.462Z,98.70
2017-10-10T04:45:20.962Z,98.60
2017-10-10T04:46:24.227Z,98.60
2017-10-10T04:47:27.476Z,98.40
2017-10-10T04:48:29.942Z,98.40
2017-10-10T04:49:32.524Z,98.40
2017-10-10T04:50:35.755Z,98.40
2017-10-10T04:51:39.001Z,98.40
2017-10-10T04:52:41.510Z,98.40
2017-10-10T04:53:44.794Z,98.40
2017-10-10T04:54:47.270Z,98.40
2017-10-10T04:55:49.832Z,98.40
2017-10-10T04:56:52.359Z,98.50
2017-10-10T04:57:54.830Z,98.50
2017-10-10T04:58:58.186Z,98.50
2017-10-10T05:00:01.138Z,98.50
2017-10-10T05:01:04.366Z,98.60
2017-10-10T05:02:06.842Z,98.60
2017-10-10T05:03:09.308Z,98.50
2017-10-10T05:04:11.833Z,98.60
2017-10-10T05:05:14.970Z,98.60
2017-10-10T05:06:17.542Z,98.60
2017-10-10T05:07:20.015Z,98.60
2017-10-10T05:08:22.469Z,98.60
2017-10-10T05:09:25.746Z,98.60
2017-10-10T05:10:28.312Z,98.60
2017-10-10T05:11:30.801Z,98.60
2017-10-10T05:12:33.263Z,99.10
2017-10-10T05:13:35.846Z,99.10
2017-10-10T05:14:38.342Z,98.70
2017-10-10T05:15:41.621Z,98.60
2017-10-10T05:16:44.090Z,98.60
2017-10-10T05:17:46.583Z,98.60
2017-10-10T05:18:49.079Z,98.60
2017-10-10T05:19:51.562Z,98.60
2017-10-10T05:20:54.027Z,99.10
2017-10-10T05:21:56.504Z,98.60
2017-10-10T05:22:58.979Z,98.60
2017-10-10T05:24:01.519Z,98.60
2017-10-10T05:25:03.985Z,98.60
2017-10-10T05:26:06.465Z,98.60
2017-10-10T05:27:08.961Z,99.10
2017-10-10T05:28:12.226Z,98.60
2017-10-10T05:29:14.722Z,98.60
2017-10-10T05:30:17.990Z,99.10
2017-10-10T05:31:20.454Z,99.10
2017-10-10T05:32:22.950Z,99.10
2017-10-10T05:33:25.430Z,98.70
2017-10-10T05:34:27.992Z,99.10
2017-10-10T05:35:30.459Z,99.40
2017-10-10T05:36:32.922Z,99.20
2017-10-10T05:37:36.154Z,98.70
2017-10-10T05:38:38.623Z,99.10
2017-10-10T05:39:41.135Z,98.80
2017-10-10T05:40:43.602Z,98.70
2017-10-10T05:41:46.066Z,98.70
2017-10-10T05:42:49.343Z,98.70
2017-10-10T05:43:51.905Z,98.70
2017-10-10T05:44:54.393Z,98.70
2017-10-10T05:45:56.883Z,98.70
2017-10-10T05:46:59.429Z,98.70
2017-10-10T05:48:02.663Z,98.70
2017-10-10T05:49:05.916Z,98.70
2017-10-10T05:50:08.424Z,98.70
2017-10-10T05:51:11.653Z,98.70
2017-10-10T05:52:14.213Z,98.70
2017-10-10T05:53:16.688Z,98.70
2017-10-10T05:54:19.470Z,98.60
2017-10-10T05:55:22.091Z,98.60
2017-10-10T05:56:25.249Z,98.60
2017-10-10T05:57:27.730Z,98.60
2017-10-10T05:58:30.201Z,98.60
2017-10-10T05:59:32.669Z,98.60
2017-10-10T06:00:35.335Z,98.60
2017-10-10T06:01:37.946Z,98.70
2017-10-10T06:02:41.191Z,98.70
2017-10-10T06:03:44.427Z,98.70
2017-10-10T06:04:47.688Z,98.80
2017-10-10T06:05:50.252Z,98.70
2017-10-10T06:06:52.725Z,98.70
2017-10-10T06:07:55.961Z,98.70
2017-10-10T06:08:59.242Z,98.70
2017-10-10T06:10:01.729Z,98.70
2017-10-10T06:11:05.000Z,98.70
2017-10-10T06:12:07.497Z,98.70
2017-10-10T06:13:10.773Z,98.70
2017-10-10T06:14:13.225Z,98.70
2017-10-10T06:15:15.739Z,98.60
2017-10-10T06:16:18.276Z,98.60
2017-10-10T06:17:20.787Z,98.60
2017-10-10T06:18:23.302Z,98.60
2017-10-10T06:19:25.784Z,98.70
2017-10-10T06:20:28.313Z,98.70
2017-10-10T06:21:30.809Z,98.70
2017-10-10T06:22:33.289Z,98.70
2017-10-10T06:23:35.820Z,98.70
2017-10-10T06:24:38.296Z,98.80
2017-10-10T06:25:40.765Z,98.80
2017-10-10T06:26:43.347Z,98.80
2017-10-10T06:27:45.918Z,98.70
2017-10-10T06:28:49.146Z,98.70
2017-10-10T06:29:52.405Z,98.80
2017-10-10T06:30:54.898Z,98.80
2017-10-10T06:31:57.407Z,98.90
2017-10-10T06:32:59.891Z,98.80
2017-10-10T06:34:02.366Z,98.80
2017-10-10T06:35:04.975Z,98.70
2017-10-10T06:36:07.522Z,98.70
2017-10-10T06:37:10.786Z,98.80
2017-10-10T06:38:14.098Z,98.70
2017-10-10T06:39:16.551Z,98.70
2017-10-10T06:40:19.789Z,98.70
2017-10-10T06:41:22.379Z,98.60
2017-10-10T06:42:24.870Z,98.60
2017-10-10T06:43:27.352Z,98.70
2017-10-10T06:44:29.870Z,98.70
2017-10-10T06:45:32.456Z,98.70
2017-10-10T06:46:35.738Z,98.70
2017-10-10T06:47:38.190Z,98.70
2017-10-10T06:48:41.761Z,98.80
2017-10-10T06:49:44.298Z,98.70
2017-10-10T06:50:46.758Z,98.70
2017-10-10T06:51:49.270Z,98.70
2017-10-10T06:52:51.760Z,98.70
2017-10-10T06:53:54.302Z,98.70
2017-10-10T06:54:56.771Z,98.70
2017-10-10T06:55:59.341Z,98.70
2017-10-10T06:57:01.898Z,98.70
2017-10-10T06:58:04.362Z,98.70
2017-10-10T06:59:06.831Z,98.70
2017-10-10T07:00:09.439Z,98.70
2017-10-10T07:01:11.924Z,98.60
2017-10-10T07:02:14.454Z,98.70
2017-10-10T07:03:16.941Z,98.70
2017-10-10T07:04:19.567Z,98.70
2017-10-10T07:05:22.034Z,98.70
2017-10-10T07:06:24.606Z,98.70
2017-10-10T07:07:27.463Z,98.60
2017-10-10T07:08:29.930Z,98.60
2017-10-10T07:09:32.418Z,98.70
2017-10-10T07:10:34.917Z,98.60
2017-10-10T07:11:37.382Z,98.60
2017-10-10T07:12:39.884Z,98.60
2017-10-10T07:13:42.407Z,98.60
2017-10-10T07:14:44.885Z,98.60
2017-10-10T07:15:47.442Z,98.50
2017-10-10T07:16:49.933Z,98.50
2017-10-10T07:17:53.165Z,98.60
2017-10-10T07:18:56.427Z,98.70
2017-10-10T07:19:59.650Z,98.60
2017-10-10T07:21:02.223Z,98.60
2017-10-10T07:22:04.702Z,98.50
2017-10-10T07:23:07.218Z,98.50
2017-10-10T07:24:09.710Z,98.40
2017-10-10T07:25:12.207Z,98.40
2017-10-10T07:26:15.561Z,98.50
2017-10-10T07:27:18.048Z,98.80
2017-10-10T07:28:20.511Z,98.50
2017-10-10T07:29:23.006Z,98.50
2017-10-10T07:30:26.234Z,98.40
2017-10-10T07:31:28.752Z,98.40
2017-10-10T07:32:31.261Z,98.40
2017-10-10T07:33:33.730Z,98.50
2017-10-10T07:34:36.994Z,98.40
2017-10-10T07:35:39.482Z,98.40
2017-10-10T07:36:41.978Z,98.20
2017-10-10T07:37:44.451Z,98.30
2017-10-10T07:38:47.757Z,98.20
2017-10-10T07:39:50.263Z,98.20
2017-10-10T07:40:52.737Z,98.10
2017-10-10T07:41:56.025Z,98.20
2017-10-10T07:42:58.527Z,98.10
2017-10-10T07:44:01.054Z,98.10
2017-10-10T07:45:04.382Z,97.80
2017-10-10T07:46:07.646Z,97.80
2017-10-10T07:47:10.102Z,97.80
2017-10-10T07:48:13.374Z,97.80
2017-10-10T07:49:16.250Z,97.70
2017-10-10T07:50:18.798Z,97.70
2017-10-10T07:51:21.270Z,97.80
2017-10-10T07:52:23.730Z,97.80
2017-10-10T07:53:26.203Z,97.80
2017-10-10T07:54:28.771Z,97.90
2017-10-10T07:55:31.290Z,97.40
2017-10-10T07:56:35.305Z,97.20
2017-10-10T07:57:37.806Z,97.20
2017-10-10T07:58:40.259Z,97.20
2017-10-10T07:59:42.778Z,97.30
2017-10-10T08:00:45.357Z,97.40
2017-10-10T08:01:48.582Z,97.50
2017-10-10T08:02:51.806Z,97.40
2017-10-10T08:03:54.298Z,97.40
2017-10-10T08:04:56.772Z,97.60
2017-10-10T08:06:00.056Z,97.60
2017-10-10T08:07:02.562Z,97.40
2017-10-10T08:08:05.814Z,97.40
2017-10-10T08:09:08.302Z,97.40
2017-10-10T08:10:10.769Z,97.10
2017-10-10T08:11:13.273Z,97.10
2017-10-10T08:12:15.812Z,97.10
2017-10-10T08:13:18.286Z,97.40
2017-10-10T08:14:20.898Z,97.40
2017-10-10T08:15:23.404Z,97.00
2017-10-10T08:16:25.893Z,96.90
2017-10-10T08:17:29.122Z,97.10
2017-10-10T08:18:31.681Z,97.00
2017-10-10T08:19:34.190Z,97.10
2017-10-10T08:20:37.434Z,96.90
2017-10-10T08:21:40.672Z,97.00
2017-10-10T08:22:43.916Z,97.20
2017-10-10T08:23:47.132Z,97.30
2017-10-10T08:24:49.650Z,97.30
2017-10-10T08:25:52.246Z,97.70
2017-10-10T08:26:54.800Z,97.50
2017-10-10T08:27:57.274Z,97.40
2017-10-10T08:28:59.755Z,97.60
2017-10-10T08:30:02.247Z,97.50
2017-10-10T08:31:04.746Z,97.40
2017-10-10T08:32:07.954Z,97.20
2017-10-10T08:33:10.413Z,97.10
2017-10-10T08:34:12.910Z,97.00
2017-10-10T08:35:15.474Z,97.00
2017-10-10T08:36:18.015Z,97.00
2017-10-10T08:37:20.494Z,96.70
2017-10-10T08:38:23.738Z,96.80
2017-10-10T08:39:26.963Z,96.70
2017-10-10T08:40:29.464Z,96.70
2017-10-10T08:41:31.920Z,96.80
2017-10-10T08:42:35.353Z,97.00
2017-10-10T08:43:37.842Z,97.00
2017-10-10T08:44:40.310Z,97.00
2017-10-10T08:45:42.811Z,97.20
2017-10-10T08:46:45.618Z,97.00
2017-10-10T08:47:48.082Z,97.00
2017-10-10T08:48:50.557Z,96.90
2017-10-10T08:49:53.022Z,96.90
2017-10-10T08:50:55.605Z,97.00
2017-10-10T08:51:58.856Z,96.70
2017-10-10T08:53:01.304Z,96.70
2017-10-10T08:54:03.773Z,96.80
2017-10-10T08:55:06.334Z,96.80
2017-10-10T08:56:08.875Z,96.50
2017-10-10T08:57:11.405Z,96.40
2017-10-10T08:58:13.883Z,96.40
2017-10-10T08:59:17.154Z,96.30
2017-10-10T09:00:19.633Z,96.30
2017-10-10T09:01:22.219Z,96.20
2017-10-10T09:02:24.784Z,96.10
2017-10-10T09:03:27.242Z,96.20
2017-10-10T09:04:30.469Z,96.40
2017-10-10T09:05:32.954Z,96.40
2017-10-10T09:06:35.469Z,96.60
2017-10-10T09:07:37.970Z,96.80
2017-10-10T09:08:40.544Z,97.00
2017-10-10T09:09:43.002Z,96.80
2017-10-10T09:10:45.638Z,96.80
2017-10-10T09:11:48.868Z,96.90
2017-10-10T09:12:51.386Z,96.90
2017-10-10T09:13:53.847Z,96.90
2017-10-10T09:14:56.335Z,97.00
2017-10-10T09:15:58.822Z,96.70
2017-10-10T09:17:01.274Z,96.40
2017-10-10T09:18:03.783Z,96.50
2017-10-10T09:19:06.239Z,96.60
2017-10-10T09:20:08.703Z,96.80
2017-10-10T09:21:11.255Z,96.50
2017-10-10T09:22:13.702Z,96.40
2017-10-10T09:23:16.200Z,96.40
2017-10-10T09:24:18.665Z,96.50
2017-10-10T09:25:21.518Z,96.20
2017-10-10T09:26:24.775Z,96.60
2017-10-10T09:27:27.323Z,96.50
2017-10-10T09:28:29.821Z,96.50
2017-10-10T09:29:32.291Z,96.70
2017-10-10T09:30:34.778Z,96.80
2017-10-10T09:31:37.251Z,97.00
2017-10-10T09:32:39.715Z,96.80
2017-10-10T09:33:42.255Z,97.10
2017-10-10T09:34:44.711Z,97.00
2017-10-10T09:35:47.302Z,97.10
2017-10-10T09:36:49.826Z,97.30
2017-10-10T09:37:52.282Z,97.20
2017-10-10T09:38:54.803Z,97.00
2017-10-10T09:39:57.285Z,96.90
2017-10-10T09:41:00.530Z,96.80
2017-10-10T09:42:03.758Z,96.90
2017-10-10T09:43:07.038Z,97.10
2017-10-10T09:44:09.658Z,97.00
2017-10-10T09:45:12.136Z,97.30
2017-10-10T09:46:14.614Z,97.10
2017-10-10T09:47:17.095Z,97.20
2017-10-10T09:48:19.670Z,97.30
2017-10-10T09:49:22.209Z,97.30
2017-10-10T09:50:24.703Z,97.10
2017-10-10T09:51:27.278Z,97.10
2017-10-10T09:52:29.782Z,97.00
2017-10-10T09:53:32.360Z,97.10
2017-10-10T09:54:34.887Z,97.20
2017-10-10T09:55:38.141Z,97.10
2017-10-10T09:56:41.374Z,96.90
2017-10-10T09:57:44.772Z,96.70
2017-10-10T09:58:47.272Z,96.70
2017-10-10T09:59:49.806Z,96.70
2017-10-10T10:00:52.304Z,96.80
2017-10-10T10:01:55.549Z,96.60
2017-10-10T10:02:58.807Z,96.60
2017-10-10T10:04:01.290Z,96.70
2017-10-10T10:05:03.767Z,96.80
2017-10-10T10:06:06.227Z,96.70
2017-10-10T10:07:08.691Z,96.70
2017-10-10T10:08:12.026Z,96.90
2017-10-10T10:09:14.525Z,96.90
2017-10-10T10:10:16.995Z,97.00
2017-10-10T10:11:20.246Z,96.80
2017-10-10T10:12:22.737Z,96.80
2017-10-10T10:13:26.023Z,96.60
2017-10-10T10:14:28.537Z,96.60
2017-10-10T10:15:31.032Z,96.70
2017-10-10T10:16:35.258Z,96.80
2017-10-10T10:17:37.743Z,96.90
2017-10-10T10:18:40.276Z,96.90
2017-10-10T10:19:42.750Z,96.90
2017-10-10T10:20:45.223Z,96.90
2017-10-10T10:21:48.560Z,96.90
2017-10-10T10:22:51.814Z,97.00
2017-10-10T10:23:54.269Z,97.00
2017-10-10T10:24:56.770Z,97.00
2017-10-10T10:25:59.257Z,97.00
2017-10-10T10:27:03.054Z,97.60
2017-10-10T10:28:05.518Z,97.30
2017-10-10T10:29:08.014Z,97.40
2017-10-10T10:30:10.874Z,97.50
2017-10-10T10:31:13.377Z,97.40
2017-10-10T10:32:15.886Z,97.50
2017-10-10T10:33:18.379Z,97.60
2017-10-10T10:34:21.622Z,97.60
2017-10-10T10:35:25.613Z,97.70
2017-10-10T10:36:28.522Z,97.70
2017-10-10T10:37:31.093Z,97.70
2017-10-10T10:38:33.566Z,97.80
2017-10-10T10:39:36.938Z,98.00
2017-10-10T10:40:39.411Z,98.00
2017-10-10T10:41:41.884Z,98.00
2017-10-10T10:42:44.492Z,98.00
2017-10-10T10:43:47.719Z,98.00
2017-10-10T10:44:50.194Z,98.00
2017-10-10T10:45:52.655Z,97.80
2017-10-10T10:46:55.172Z,98.10
2017-10-10T10:47:57.841Z,98.30
2017-10-10T10:49:01.104Z,98.20
2017-10-10T10:50:03.569Z,98.20
2017-10-10T10:51:06.083Z,98.10
2017-10-10T10:52:08.546Z,98.20
2017-10-10T10:53:11.118Z,98.00
2017-10-10T10:54:13.577Z,98.40
2017-10-10T10:55:16.578Z,98.00
2017-10-10T10:56:19.029Z,97.80
2017-10-10T10:57:21.553Z,97.90
2017-10-10T10:58:24.128Z,97.80
2017-10-10T10:59:27.359Z,97.80
2017-10-10T11:00:30.645Z,97.70
2017-10-10T11:01:33.165Z,97.70
2017-10-10T11:02:35.728Z,97.70
2017-10-10T11:03:38.207Z,97.40
2017-10-10T11:04:40.746Z,97.40
2017-10-10T11:05:43.264Z,97.20
2017-10-10T11:06:45.735Z,97.20
2017-10-10T11:07:48.211Z,97.30
2017-10-10T11:08:50.680Z,97.20
2017-10-10T11:09:53.158Z,97.10
2017-10-10T11:10:55.654Z,96.70
2017-10-10T11:11:58.898Z,97.00
2017-10-10T11:13:02.139Z,96.90
2017-10-10T11:14:04.636Z,96.90
2017-10-10T11:15:07.138Z,96.80
2017-10-10T11:16:09.663Z,96.90
2017-10-10T11:17:12.219Z,96.80
2017-10-10T11:18:15.530Z,97.10
2017-10-10T11:19:18.009Z,97.00
2017-10-10T11:20:20.495Z,97.00
2017-10-10T11:21:22.998Z,97.00
2017-10-10T11:22:25.507Z,96.90
2017-10-10T11:23:28.751Z,96.30
2017-10-10T11:24:31.267Z,96.30
2017-10-10T11:25:34.536Z,96.60
2017-10-10T11:26:37.053Z,96.60
2017-10-10T11:27:40.247Z,96.60
2017-10-10T11:28:42.737Z,96.70
2017-10-10T11:29:45.210Z,96.70
2017-10-10T11:30:48.555Z,96.80
2017-10-10T11:31:51.070Z,96.70
2017-10-10T11:32:53.595Z,96.90
2017-10-10T11:33:56.863Z,97.00
2017-10-10T11:35:00.118Z,97.00
2017-10-10T11:36:02.626Z,97.00
2017-10-10T11:37:05.996Z,96.90
2017-10-10T11:38:08.544Z,96.90
2017-10-10T11:39:11.027Z,96.90
2017-10-10T11:40:13.530Z,96.70
2017-10-10T11:41:16.050Z,96.70
2017-10-10T11:42:19.353Z,96.80
2017-10-10T11:43:21.869Z,96.80
2017-10-10T11:44:24.820Z,96.70
2017-10-10T11:45:27.308Z,96.60
2017-10-10T11:46:30.546Z,96.50
2017-10-10T11:47:33.925Z,96.50
2017-10-10T11:48:36.390Z,96.50
2017-10-10T11:49:38.859Z,96.50
2017-10-10T11:50:41.417Z,96.50
2017-10-10T11:51:43.886Z,96.60
2017-10-10T11:52:46.452Z,96.40
2017-10-10T11:53:48.981Z,96.40
2017-10-10T11:54:51.457Z,96.40
2017-10-10T11:55:54.119Z,96.40
2017-10-10T11:56:56.690Z,96.40
2017-10-10T11:57:59.206Z,96.20
2017-10-10T11:59:01.825Z,96.20
2017-10-10T12:00:04.302Z,96.30
2017-10-10T12:01:08.443Z,96.10
2017-10-10T12:02:10.940Z,96.10
2017-10-10T12:03:13.434Z,96.20
2017-10-10T12:04:15.927Z,96.20
2017-10-10T12:05:18.422Z,96.40
2017-10-10T12:06:20.919Z,96.30
2017-10-10T12:07:23.414Z,96.40
2017-10-10T12:08:26.645Z,96.40
2017-10-10T12:09:29.136Z,96.40
2017-10-10T12:10:31.657Z,96.60
2017-10-10T12:11:34.107Z,96.50
2017-10-10T12:12:36.611Z,96.50
2017-10-10T12:13:39.062Z,96.60
2017-10-10T12:14:41.542Z,96.70
2017-10-10T12:15:44.048Z,96.70
2017-10-10T12:16:46.501Z,96.70
2017-10-10T12:17:49.023Z,96.80
2017-10-10T12:18:51.492Z,96.70
2017-10-10T12:19:53.993Z,96.80
2017-10-10T12:20:56.877Z,96.80
2017-10-10T12:21:59.352Z,97.10
2017-10-10T12:23:01.886Z,96.80
2017-10-10T12:24:04.372Z,96.60
2017-10-10T12:25:06.893Z,96.60
2017-10-10T12:26:09.411Z,96.60
2017-10-10T12:27:12.276Z,96.60
2017-10-10T12:28:14.785Z,96.70
2017-10-10T12:29:17.293Z,96.70
2017-10-10T12:30:20.530Z,96.70
2017-10-10T12:31:23.784Z,96.80
2017-10-10T12:32:26.325Z,96.80
2017-10-10T12:33:28.810Z,96.70
2017-10-10T12:34:32.086Z,97.00
2017-10-10T12:35:34.549Z,96.70
2017-10-10T12:36:37.025Z,96.80
2017-10-10T12:37:39.581Z,96.70
2017-10-10T12:38:42.074Z,96.60
2017-10-10T12:39:45.432Z,96.70
2017-10-10T12:40:50.876Z,96.70
2017-10-10T12:41:53.351Z,96.60
2017-10-10T12:42:55.857Z,96.70
2017-10-10T12:43:58.367Z,96.70
2017-10-10T12:45:01.615Z,96.60
2017-10-10T12:46:04.885Z,96.70
2017-10-10T12:47:07.355Z,96.60
2017-10-10T12:48:09.844Z,96.70
2017-10-10T12:49:12.894Z,96.60
2017-10-10T12:50:16.221Z,96.70
2017-10-10T12:51:18.683Z,96.60
2017-10-10T12:52:21.252Z,96.70
2017-10-10T12:53:24.507Z,96.80
2017-10-10T12:54:26.985Z,96.80
2017-10-10T12:55:29.562Z,96.80
2017-10-10T12:56:32.039Z,96.80
2017-10-10T12:57:34.540Z,96.80
2017-10-10T12:58:37.063Z,96.90
2017-10-10T12:59:39.516Z,96.90
2017-10-10T13:00:41.994Z,96.80
2017-10-10T13:01:44.486Z,97.00
2017-10-10T13:02:47.726Z,96.90
2017-10-10T13:03:50.247Z,96.70
2017-10-10T13:04:52.815Z,96.60
2017-10-10T13:05:55.306Z,96.70
2017-10-10T13:06:58.569Z,96.90
2017-10-10T13:08:01.919Z,96.80
2017-10-10T13:09:04.410Z,96.80
2017-10-10T13:10:06.979Z,96.80
2017-10-10T13:11:09.484Z,96.80
2017-10-10T13:12:12.727Z,96.80
2017-10-10T13:13:15.959Z,96.80
2017-10-10T13:14:19.208Z,96.90
2017-10-10T13:15:22.481Z,97.00
2017-10-10T13:16:24.979Z,97.00
2017-10-10T13:17:28.250Z,97.00
2017-10-10T13:18:30.721Z,96.90
2017-10-10T13:19:33.200Z,96.80
2017-10-10T13:20:36.494Z,96.80
2017-10-10T13:21:39.010Z,96.80
2017-10-10T13:22:41.506Z,96.80
2017-10-10T13:23:44.035Z,96.90
2017-10-10T13:24:46.667Z,97.00
2017-10-10T13:25:49.133Z,97.10
2017-10-10T13:26:52.394Z,97.10